createdAt,value
2023-02-20T00:00:26.562Z,10.93
2023-02-20T00:02:53.042Z,11.55
2023-02-20T00:05:20.128Z,8.52
2023-02-20T00:07:47.156Z,13.20
2023-02-20T00:10:14.173Z,12.75
2023-02-20T00:12:40.866Z,12.63
2023-02-20T00:15:08.353Z,9.32
2023-02-20T00:17:34.820Z,12.85
2023-02-20T00:20:02.122Z,8.13
2023-02-20T00:22:28.791Z,12.05
2023-02-20T00:24:55.091Z,11.43
2023-02-20T00:27:21.455Z,11.27
2023-02-20T00:29:47.762Z,13.15
2023-02-20T00:32:14.173Z,11.35
2023-02-20T00:34:40.659Z,12.63
2023-02-20T00:37:06.973Z,10.40
2023-02-20T00:39:33.439Z,11.15
2023-02-20T00:41:59.861Z,13.98
2023-02-20T00:44:26.444Z,14.27
2023-02-20T00:46:53.757Z,8.50
2023-02-20T00:49:23.463Z,9.35
2023-02-20T00:51:49.749Z,14.77
2023-02-20T00:54:16.531Z,12.80
2023-02-20T00:56:42.953Z,12.07
2023-02-20T00:59:09.303Z,7.28
2023-02-20T01:01:36.239Z,10.15
2023-02-20T01:04:02.746Z,8.63
2023-02-20T01:06:29.084Z,8.93
2023-02-20T01:08:55.391Z,10.98
2023-02-20T01:11:22.005Z,12.60
2023-02-20T01:13:48.374Z,11.35
2023-02-20T01:16:15.111Z,8.52
2023-02-20T01:18:41.675Z,10.38
2023-02-20T01:21:09.370Z,7.78
2023-02-20T01:23:35.671Z,11.02
2023-02-20T01:26:01.958Z,11.02
2023-02-20T01:28:28.262Z,9.40
2023-02-20T01:30:54.628Z,8.80
2023-02-20T01:33:21.039Z,10.07
2023-02-20T01:35:47.363Z,12.50
2023-02-20T01:38:13.641Z,15.95
2023-02-20T01:40:47.876Z,13.27
2023-02-20T01:43:14.686Z,8.82
2023-02-20T01:45:41.932Z,11.25
2023-02-20T01:48:22.932Z,14.10
2023-02-20T01:50:52.382Z,17.35
2023-02-20T01:53:21.993Z,13.48
2023-02-20T01:55:58.868Z,9.18
2023-02-20T01:58:44.655Z,11.50
2023-02-20T02:01:12.029Z,14.18
2023-02-20T02:03:42.953Z,12.70
2023-02-20T02:06:12.894Z,14.25
2023-02-20T02:08:42.078Z,18.20
2023-02-20T02:11:11.671Z,8.23
2023-02-20T02:13:39.244Z,16.13
2023-02-20T02:16:28.403Z,14.48
2023-02-20T02:19:32.307Z,16.67
2023-02-20T02:22:25.288Z,16.35
2023-02-20T02:25:25.790Z,14.20
2023-02-20T02:28:17.861Z,9.87
2023-02-20T02:31:05.330Z,16.85
2023-02-20T02:33:57.891Z,16.60
2023-02-20T02:36:42.999Z,17.17
2023-02-20T02:39:25.483Z,14.35
2023-02-20T02:41:54.593Z,18.23
2023-02-20T02:44:42.381Z,18.83
2023-02-20T02:47:13.345Z,11.57
2023-02-20T02:49:51.874Z,16.50
2023-02-20T02:52:38.253Z,10.20
2023-02-20T02:55:06.726Z,17.70
2023-02-20T02:57:33.107Z,12.02
2023-02-20T03:00:03.828Z,9.98
2023-02-20T03:02:36.206Z,18.08
2023-02-20T03:05:06.415Z,12.63
2023-02-20T03:07:35.159Z,19.30
2023-02-20T03:10:05.590Z,18.58
2023-02-20T03:12:34.070Z,16.20
2023-02-20T03:15:23.292Z,16.05
2023-02-20T03:18:11.246Z,15.05
2023-02-20T03:20:45.688Z,19.13
2023-02-20T03:23:17.997Z,16.20
2023-02-20T03:25:54.235Z,17.30
2023-02-20T03:28:28.588Z,20.00
2023-02-20T03:31:07.661Z,15.82
2023-02-20T03:34:16.185Z,14.02
2023-02-20T03:37:07.162Z,21.08
2023-02-20T03:39:58.445Z,24.55
2023-02-20T03:45:11.766Z,22.50
2023-02-20T03:47:43.350Z,21.55
2023-02-20T03:50:11.697Z,23.13
2023-02-20T03:52:38.141Z,23.95
2023-02-20T03:55:04.952Z,23.50
2023-02-20T03:57:37.920Z,22.88
2023-02-20T04:00:11.359Z,15.90
2023-02-20T04:02:42.429Z,19.73
2023-02-20T04:07:47.221Z,16.02
2023-02-20T04:10:22.592Z,24.17
2023-02-20T04:12:50.837Z,21.10
2023-02-20T04:15:19.255Z,28.08
2023-02-20T04:17:54.982Z,16.23
2023-02-20T04:20:21.500Z,31.27
2023-02-20T04:22:52.105Z,22.75
2023-02-20T04:25:30.941Z,31.30
2023-02-20T04:27:57.570Z,20.85
2023-02-20T04:30:24.322Z,24.52
2023-02-20T04:32:50.668Z,28.77
2023-02-20T04:35:19.342Z,34.55
2023-02-20T04:37:45.865Z,25.90
2023-02-20T04:40:15.153Z,24.60
2023-02-20T04:42:41.472Z,23.02
2023-02-20T04:45:08.081Z,20.50
2023-02-20T04:47:34.396Z,30.65
2023-02-20T04:50:01.246Z,21.50
2023-02-20T04:52:27.553Z,36.55
2023-02-20T04:54:53.855Z,23.15
2023-02-20T04:57:20.236Z,38.80
2023-02-20T04:59:46.544Z,30.92
2023-02-20T05:02:12.898Z,25.23
2023-02-20T05:04:39.321Z,27.23
2023-02-20T05:07:05.863Z,27.55
2023-02-20T05:09:32.200Z,30.35
2023-02-20T05:11:58.523Z,45.67
2023-02-20T05:14:24.857Z,33.90
2023-02-20T05:16:51.298Z,32.30
2023-02-20T05:19:18.060Z,39.30
2023-02-20T05:22:04.007Z,17.20
2023-02-20T05:24:31.985Z,37.03
2023-02-20T05:26:59.406Z,40.72
2023-02-20T05:29:25.913Z,43.13
2023-02-20T05:31:52.371Z,41.08
2023-02-20T05:34:21.179Z,31.00
2023-02-20T05:36:47.487Z,36.15
2023-02-20T05:39:13.787Z,28.25
2023-02-20T05:41:40.079Z,46.20
2023-02-20T05:44:06.460Z,27.33
2023-02-20T05:46:33.152Z,33.08
2023-02-20T05:48:59.543Z,39.67
2023-02-20T05:51:28.969Z,32.95
2023-02-20T05:53:55.397Z,29.58
2023-02-20T05:56:21.788Z,28.75
2023-02-20T05:58:48.597Z,36.95
2023-02-20T06:01:29.662Z,29.42
2023-02-20T06:03:56.002Z,33.95
2023-02-20T06:06:22.600Z,31.55
2023-02-20T06:08:49.046Z,36.22
2023-02-20T06:11:15.741Z,24.75
2023-02-20T06:13:44.076Z,33.90
2023-02-20T06:16:11.419Z,25.65
2023-02-20T06:18:39.965Z,23.13
2023-02-20T06:21:11.211Z,30.40
2023-02-20T06:23:38.973Z,24.40
2023-02-20T06:26:06.939Z,30.30
2023-02-20T06:28:33.699Z,19.23
2023-02-20T06:31:01.852Z,18.40
2023-02-20T06:33:28.869Z,20.75
2023-02-20T06:35:55.242Z,25.70
2023-02-20T06:38:21.904Z,21.85
2023-02-20T06:40:48.298Z,20.27
2023-02-20T06:43:14.600Z,19.73
2023-02-20T06:45:40.931Z,22.98
2023-02-20T06:48:07.606Z,22.48
2023-02-20T06:50:34.003Z,17.27
2023-02-20T06:53:00.403Z,20.52
2023-02-20T06:55:26.982Z,22.02
2023-02-20T06:57:53.272Z,26.25
2023-02-20T07:00:19.981Z,23.33
2023-02-20T07:02:46.599Z,19.77
2023-02-20T07:05:13.052Z,18.45
2023-02-20T07:07:39.376Z,14.80
2023-02-20T07:10:06.136Z,13.00
2023-02-20T07:12:33.192Z,25.67
2023-02-20T07:14:59.875Z,23.67
2023-02-20T07:17:26.301Z,15.95
2023-02-20T07:19:52.635Z,23.58
2023-02-20T07:22:18.993Z,13.45
2023-02-20T07:24:50.333Z,15.73
2023-02-20T07:27:16.624Z,22.40
2023-02-20T07:29:45.931Z,22.25
2023-02-20T07:32:13.615Z,23.48
2023-02-20T07:34:40.654Z,16.98
2023-02-20T07:37:07.541Z,17.55
2023-02-20T07:39:33.860Z,13.25
2023-02-20T07:42:00.225Z,19.40
2023-02-20T07:44:26.512Z,18.25
2023-02-20T07:46:52.817Z,13.30
2023-02-20T07:49:19.130Z,17.48
2023-02-20T07:51:45.449Z,19.13
2023-02-20T07:54:11.810Z,13.00
2023-02-20T07:56:40.824Z,20.92
2023-02-20T07:59:07.393Z,12.80
2023-02-20T08:01:33.690Z,7.93
2023-02-20T08:04:00.011Z,14.52
2023-02-20T08:06:26.403Z,16.55
2023-02-20T08:08:52.860Z,20.40
2023-02-20T08:11:21.452Z,14.70
2023-02-20T08:13:48.148Z,19.45
2023-02-20T08:16:15.151Z,15.45
2023-02-20T08:18:41.676Z,17.42
2023-02-20T08:21:08.035Z,15.60
2023-02-20T08:23:34.344Z,17.77
2023-02-20T08:26:02.364Z,19.20
2023-02-20T08:28:28.970Z,21.38
2023-02-20T08:30:55.303Z,17.48
2023-02-20T08:33:21.660Z,24.15
2023-02-20T08:35:53.898Z,14.23
2023-02-20T08:38:26.089Z,25.95
2023-02-20T08:40:52.615Z,18.52
2023-02-20T08:43:18.965Z,15.82
2023-02-20T08:45:45.361Z,17.85
2023-02-20T08:48:11.787Z,22.70
2023-02-20T08:50:38.145Z,20.75
2023-02-20T08:53:04.445Z,21.38
2023-02-20T08:55:30.734Z,17.45
2023-02-20T08:57:57.094Z,23.05
2023-02-20T09:00:23.544Z,20.48
2023-02-20T09:02:52.498Z,16.15
2023-02-20T09:05:19.179Z,18.58
2023-02-20T09:07:45.660Z,18.95
2023-02-20T09:10:12.117Z,24.52
2023-02-20T09:12:41.848Z,25.83
2023-02-20T09:15:09.888Z,19.40
2023-02-20T09:17:36.198Z,18.73
2023-02-20T09:20:02.508Z,18.60
2023-02-20T09:22:28.827Z,19.67
2023-02-20T09:24:55.771Z,21.02
2023-02-20T09:27:22.128Z,17.33
2023-02-20T09:29:48.446Z,14.77
2023-02-20T09:32:15.069Z,24.98
2023-02-20T09:34:41.548Z,16.75
2023-02-20T09:37:08.523Z,15.02
2023-02-20T09:39:34.855Z,20.25
2023-02-20T09:42:22.760Z,21.35
2023-02-20T09:45:11.653Z,21.00
2023-02-20T09:47:43.988Z,19.13
2023-02-20T09:50:20.576Z,19.58
2023-02-20T09:53:00.827Z,25.38
2023-02-20T09:55:34.785Z,17.90
2023-02-20T09:58:03.117Z,21.88
2023-02-20T10:00:36.877Z,27.55
2023-02-20T10:03:15.472Z,26.08
2023-02-20T10:05:43.941Z,21.30
2023-02-20T10:08:11.543Z,26.23
2023-02-20T10:10:40.935Z,21.02
2023-02-20T10:13:39.663Z,22.45
2023-02-20T10:16:32.032Z,21.00
2023-02-20T10:19:16.900Z,25.10
2023-02-20T10:21:43.170Z,22.00
2023-02-20T10:24:47.920Z,24.35
2023-02-20T10:27:43.234Z,15.82
2023-02-20T10:30:18.475Z,18.75
2023-02-20T10:32:57.398Z,22.83
2023-02-20T10:35:31.577Z,23.55
2023-02-20T10:38:02.781Z,27.50
2023-02-20T10:40:38.297Z,21.90
2023-02-20T10:43:15.186Z,14.95
2023-02-20T10:46:36.842Z,12.02
2023-02-20T10:49:19.180Z,21.40
2023-02-20T10:51:48.527Z,19.42
2023-02-20T10:54:34.123Z,18.75
2023-02-20T10:57:13.448Z,17.60
2023-02-20T10:59:59.410Z,16.55
2023-02-20T11:02:31.110Z,14.15
2023-02-20T11:05:07.000Z,22.63
2023-02-20T11:07:33.320Z,12.27
2023-02-20T11:10:02.737Z,17.17
2023-02-20T11:12:34.677Z,24.98
2023-02-20T11:15:07.476Z,19.00
2023-02-20T11:17:35.272Z,15.52
2023-02-20T11:20:04.774Z,16.40
2023-02-20T11:22:44.717Z,14.07
2023-02-20T11:25:19.766Z,21.85
2023-02-20T11:27:53.226Z,18.10
2023-02-20T11:30:22.808Z,13.13
2023-02-20T11:32:51.892Z,8.63
2023-02-20T11:35:18.332Z,20.35
2023-02-20T11:37:54.753Z,15.45
2023-02-20T11:40:28.900Z,10.15
2023-02-20T11:42:55.599Z,17.23
2023-02-20T11:45:29.286Z,15.98
2023-02-20T11:48:06.756Z,16.67
2023-02-20T11:50:42.258Z,15.18
2023-02-20T11:53:24.821Z,14.25
2023-02-20T11:56:19.555Z,12.38
2023-02-20T11:58:47.065Z,13.82
2023-02-20T12:01:29.554Z,20.00
2023-02-20T12:03:57.790Z,22.73
2023-02-20T12:06:33.172Z,9.98
2023-02-20T12:09:04.596Z,10.55
2023-02-20T12:11:31.004Z,16.67
2023-02-20T12:13:59.681Z,13.15
2023-02-20T12:16:47.809Z,18.80
2023-02-20T12:19:21.608Z,11.82
2023-02-20T12:21:50.835Z,20.30
2023-02-20T12:25:00.059Z,15.15
2023-02-20T12:27:26.300Z,18.35
2023-02-20T12:30:20.495Z,13.48
2023-02-20T12:33:23.296Z,9.57
2023-02-20T12:36:08.173Z,15.77
2023-02-20T12:38:50.143Z,13.32
2023-02-20T12:41:28.631Z,14.48
2023-02-20T12:44:13.306Z,7.70
2023-02-20T12:47:09.445Z,13.25
2023-02-20T12:49:58.901Z,13.35
2023-02-20T12:52:44.037Z,11.05
2023-02-20T12:55:40.033Z,8.50
2023-02-20T12:58:32.018Z,6.50
2023-02-20T13:01:01.957Z,9.68
2023-02-20T13:03:31.081Z,16.25
2023-02-20T13:05:57.701Z,11.88
2023-02-20T13:08:35.142Z,4.20
2023-02-20T13:11:05.940Z,10.95
2023-02-20T13:14:16.871Z,7.88
2023-02-20T13:17:13.889Z,6.20
2023-02-20T13:19:57.554Z,7.93
2023-02-20T13:22:23.924Z,12.52
2023-02-20T13:24:50.286Z,5.00
2023-02-20T13:27:32.575Z,5.35
2023-02-20T13:30:21.844Z,8.55
2023-02-20T13:32:48.276Z,6.95
2023-02-20T13:35:53.575Z,8.25
2023-02-20T13:38:22.587Z,6.93
2023-02-20T13:41:00.789Z,9.63
2023-02-20T13:43:34.620Z,4.07
2023-02-20T13:46:00.973Z,7.15
2023-02-20T13:48:30.326Z,4.25
2023-02-20T13:51:18.137Z,5.43
2023-02-20T13:53:47.432Z,4.35
2023-02-20T13:56:23.794Z,5.88
2023-02-20T13:58:51.697Z,2.70
2023-02-20T14:01:18.071Z,3.58
2023-02-20T14:03:44.462Z,9.65
2023-02-20T14:06:13.756Z,5.00
2023-02-20T14:08:50.289Z,7.05
2023-02-20T14:11:26.964Z,6.70
2023-02-20T14:13:57.714Z,4.47
2023-02-20T14:16:37.802Z,11.55
2023-02-20T14:19:34.377Z,5.88
2023-02-20T14:22:19.299Z,8.30
2023-02-20T14:24:45.588Z,9.95
2023-02-20T14:27:26.896Z,11.10
2023-02-20T14:30:12.302Z,12.85
2023-02-20T14:32:43.435Z,12.30
2023-02-20T14:37:58.173Z,9.85
2023-02-20T14:40:34.683Z,11.30
2023-02-20T14:43:03.083Z,9.10
2023-02-20T14:45:29.976Z,12.13
2023-02-20T14:48:00.125Z,9.35
2023-02-20T14:50:33.190Z,19.23
2023-02-20T14:53:12.114Z,12.55
2023-02-20T14:55:38.486Z,11.23
2023-02-20T14:58:11.665Z,7.95
2023-02-20T15:00:38.882Z,5.63
2023-02-20T15:03:29.806Z,9.02
2023-02-20T15:06:01.688Z,11.98
2023-02-20T15:08:33.417Z,12.30
2023-02-20T15:11:10.209Z,12.07
2023-02-20T15:13:41.191Z,8.95
2023-02-20T15:16:29.381Z,8.65
2023-02-20T15:18:55.802Z,5.93
2023-02-20T15:21:38.875Z,10.32
2023-02-20T15:24:30.571Z,11.27
2023-02-20T15:27:13.547Z,11.93
2023-02-20T15:29:40.462Z,10.02
2023-02-20T15:32:19.747Z,9.20
2023-02-20T15:34:51.288Z,10.27
2023-02-20T15:37:27.164Z,8.15
2023-02-20T15:40:25.633Z,8.25
2023-02-20T15:43:04.284Z,8.48
2023-02-20T15:45:31.819Z,13.32
2023-02-20T15:47:58.796Z,13.27
2023-02-20T15:50:27.238Z,17.65
2023-02-20T15:52:54.639Z,13.43
2023-02-20T15:55:22.926Z,17.33
2023-02-20T15:57:50.926Z,16.27
2023-02-20T16:00:32.427Z,18.80
2023-02-20T16:03:01.129Z,12.70
2023-02-20T16:05:27.965Z,18.30
2023-02-20T16:07:54.350Z,18.63
2023-02-20T16:10:25.701Z,12.63
2023-02-20T16:12:54.882Z,17.60
2023-02-20T16:15:21.859Z,15.90
2023-02-20T16:17:49.687Z,11.57
2023-02-20T16:20:29.817Z,12.88
2023-02-20T16:22:56.401Z,12.40
2023-02-20T16:25:23.713Z,20.15
2023-02-20T16:27:56.115Z,10.50
2023-02-20T16:30:33.862Z,10.43
2023-02-20T16:33:02.218Z,15.73
2023-02-20T16:35:29.671Z,14.18
2023-02-20T16:37:55.974Z,17.98
2023-02-20T16:40:22.318Z,11.75
2023-02-20T16:42:48.706Z,14.70
2023-02-20T16:45:18.452Z,15.75
2023-02-20T16:47:49.274Z,19.95
2023-02-20T16:50:19.927Z,19.65
2023-02-20T16:52:47.814Z,15.63
2023-02-20T16:55:23.015Z,9.93
2023-02-20T16:57:49.784Z,20.17
2023-02-20T17:00:18.605Z,16.00
2023-02-20T17:02:45.894Z,10.98
2023-02-20T17:05:13.418Z,22.13
2023-02-20T17:07:39.913Z,28.70
2023-02-20T17:10:07.512Z,15.43
2023-02-20T17:12:33.998Z,17.85
2023-02-20T17:15:01.669Z,11.35
2023-02-20T17:17:28.215Z,17.42
2023-02-20T17:19:57.757Z,20.80
2023-02-20T17:22:25.358Z,13.27
2023-02-20T17:24:52.261Z,25.15
2023-02-20T17:27:19.152Z,21.67
2023-02-20T17:29:46.526Z,17.77
2023-02-20T17:32:14.574Z,20.27
2023-02-20T17:34:41.698Z,29.27
2023-02-20T17:37:09.303Z,15.05
2023-02-20T17:39:36.856Z,20.15
2023-02-20T17:42:03.301Z,25.92
2023-02-20T17:44:30.768Z,17.48
2023-02-20T17:46:58.949Z,23.83
2023-02-20T17:49:26.833Z,25.65
2023-02-20T17:51:55.464Z,21.48
2023-02-20T17:54:25.234Z,24.88
2023-02-20T17:56:51.987Z,32.28
2023-02-20T17:59:18.809Z,29.42
2023-02-20T18:01:45.510Z,18.00
2023-02-20T18:04:12.450Z,23.92
2023-02-20T18:06:39.680Z,27.20
2023-02-20T18:09:08.277Z,26.80
2023-02-20T18:11:34.945Z,20.70
2023-02-20T18:14:01.382Z,22.52
2023-02-20T18:16:28.773Z,22.42
2023-02-20T18:18:55.458Z,10.48
2023-02-20T18:21:27.122Z,22.02
2023-02-20T18:23:53.903Z,16.35
2023-02-20T18:26:20.591Z,14.88
2023-02-20T18:28:47.157Z,11.63
2023-02-20T18:31:14.338Z,15.93
2023-02-20T18:33:41.060Z,15.18
2023-02-20T18:36:08.781Z,20.60
2023-02-20T18:38:35.928Z,15.40
2023-02-20T18:41:02.517Z,18.33
2023-02-20T18:43:28.856Z,13.20
2023-02-20T18:45:55.359Z,21.67
2023-02-20T18:48:21.793Z,19.42
2023-02-20T18:50:49.664Z,19.73
2023-02-20T18:53:16.034Z,17.08
2023-02-20T18:55:42.402Z,12.48
2023-02-20T18:58:08.711Z,16.73
2023-02-20T19:00:35.447Z,17.92
2023-02-20T19:03:03.416Z,18.35
2023-02-20T19:05:29.970Z,15.63
2023-02-20T19:07:56.525Z,10.00
2023-02-20T19:10:25.483Z,13.95
2023-02-20T19:12:53.157Z,10.68
2023-02-20T19:15:20.196Z,16.40
2023-02-20T19:17:47.160Z,9.32
2023-02-20T19:20:22.417Z,17.40
2023-02-20T19:22:50.114Z,10.18
2023-02-20T19:25:18.934Z,14.35
2023-02-20T19:27:45.299Z,12.95
2023-02-20T19:30:12.330Z,20.20
2023-02-20T19:32:38.775Z,14.75
2023-02-20T19:35:05.719Z,14.65
2023-02-20T19:37:32.093Z,13.73
2023-02-20T19:39:58.394Z,18.40
2023-02-20T19:42:27.154Z,9.73
2023-02-20T19:44:55.325Z,12.50
2023-02-20T19:47:22.726Z,10.35
2023-02-20T19:49:49.193Z,13.68
2023-02-20T19:52:15.711Z,15.85
2023-02-20T19:54:46.674Z,12.15
2023-02-20T19:57:13.633Z,18.38
2023-02-20T19:59:41.536Z,13.75
2023-02-20T20:02:08.040Z,12.02
2023-02-20T20:04:34.416Z,12.98
2023-02-20T20:07:04.790Z,19.48
2023-02-20T20:09:36.493Z,8.32
2023-02-20T20:12:04.524Z,18.27
2023-02-20T20:14:30.825Z,20.17
2023-02-20T20:16:57.234Z,20.42
2023-02-20T20:19:23.573Z,13.77
2023-02-20T20:21:50.518Z,17.85
2023-02-20T20:24:17.365Z,23.85
2023-02-20T20:26:43.720Z,20.75
2023-02-20T20:29:10.189Z,13.38
2023-02-20T20:31:39.528Z,20.95
2023-02-20T20:34:07.486Z,12.65
2023-02-20T20:36:36.767Z,18.58
2023-02-20T20:39:04.383Z,15.52
2023-02-20T20:41:44.009Z,11.30
2023-02-20T20:44:12.131Z,19.50
2023-02-20T20:46:39.202Z,17.20
2023-02-20T20:49:05.521Z,7.40
2023-02-20T20:51:31.840Z,19.83
2023-02-20T20:53:58.403Z,15.38
2023-02-20T20:56:24.726Z,16.58
2023-02-20T20:58:51.063Z,17.95
2023-02-20T21:01:18.462Z,18.80
2023-02-20T21:03:44.803Z,15.77
2023-02-20T21:06:11.160Z,12.75
2023-02-20T21:08:37.472Z,17.95
2023-02-20T21:11:03.791Z,17.75
2023-02-20T21:13:30.163Z,18.90
2023-02-20T21:15:56.719Z,19.92
2023-02-20T21:18:23.199Z,20.13
2023-02-20T21:20:49.498Z,21.90
2023-02-20T21:23:15.969Z,25.38
2023-02-20T21:25:42.323Z,24.52
2023-02-20T21:28:08.679Z,11.63
2023-02-20T21:30:35.076Z,12.77
2023-02-20T21:33:01.463Z,27.02
2023-02-20T21:35:27.808Z,19.48
2023-02-20T21:37:54.222Z,22.38
2023-02-20T21:40:20.579Z,22.95
2023-02-20T21:43:05.704Z,18.98
2023-02-20T21:45:32.516Z,23.48
2023-02-20T21:47:58.863Z,18.45
2023-02-20T21:50:25.253Z,21.17
2023-02-20T21:52:51.563Z,23.15
2023-02-20T21:55:18.441Z,25.52
2023-02-20T21:57:45.064Z,21.60
2023-02-20T22:00:13.813Z,26.27
2023-02-20T22:02:40.568Z,21.75
2023-02-20T22:05:08.639Z,35.33
2023-02-20T22:07:53.393Z,32.95
2023-02-20T22:10:38.184Z,38.13
2023-02-20T22:13:22.860Z,32.22
2023-02-20T22:16:07.708Z,31.25
2023-02-20T22:18:52.481Z,40.25
2023-02-20T22:21:39.230Z,35.42
2023-02-20T22:24:36.926Z,43.58
2023-02-20T22:27:23.020Z,31.00
2023-02-20T22:30:07.746Z,48.55
2023-02-20T22:32:52.629Z,56.70
2023-02-20T22:35:37.313Z,43.92
2023-02-20T22:38:22.145Z,41.47
2023-02-20T22:41:06.979Z,42.88
2023-02-20T22:43:51.915Z,35.28
2023-02-20T22:46:41.189Z,43.20
2023-02-20T22:49:26.417Z,41.45
2023-02-20T22:52:11.233Z,43.45
2023-02-20T22:55:04.768Z,35.63
2023-02-20T22:57:50.388Z,34.95
2023-02-20T23:00:35.170Z,41.97
2023-02-20T23:03:19.957Z,44.15
2023-02-20T23:06:15.280Z,48.55
2023-02-20T23:09:02.023Z,39.05
2023-02-20T23:11:46.810Z,49.05
2023-02-20T23:14:31.791Z,43.28
2023-02-20T23:17:23.475Z,41.63
2023-02-20T23:20:14.526Z,43.58
2023-02-20T23:22:59.356Z,41.67
2023-02-20T23:25:44.509Z,31.38
2023-02-20T23:28:36.971Z,39.90
2023-02-20T23:31:22.589Z,37.95
2023-02-20T23:34:07.455Z,46.22
2023-02-20T23:36:52.235Z,29.42
2023-02-20T23:39:37.040Z,27.88
2023-02-20T23:42:21.789Z,46.03
2023-02-20T23:45:06.484Z,36.60
2023-02-20T23:47:51.263Z,43.22
2023-02-20T23:50:36.480Z,48.50
2023-02-20T23:53:21.300Z,36.22
2023-02-20T23:56:05.969Z,45.00
2023-02-20T23:58:50.712Z,40.70
